ADDS METAR Data INFO
IDs: Format: Raw Decoded Include TAF

Data at: 0432 UTC 24 Apr 2018

KGDJ 240415Z AUTO 00000KT 10SM CLR 14/10 A3007 RMK AO2 T01380104
KGDJ 240355Z AUTO 00000KT 10SM CLR 14/11 A3007 RMK AO2 T01440106
KGDJ 240335Z AUTO 00000KT 10SM CLR 15/11 A3006 RMK AO2 T01520108
KGDJ 240315Z AUTO 00000KT 10SM CLR 16/11 A3006 RMK AO2 T01590105
KGDJ 240255Z AUTO 00000KT 10SM CLR 16/11 A3005 RMK AO2 T01630110
KGDJ 240235Z AUTO 00000KT 10SM CLR 16/11 A3005 RMK AO2 T01610110
KGDJ 240215Z AUTO 00000KT 10SM CLR 18/10 A3004 RMK AO2 T01770103
KGDJ 240155Z AUTO 00000KT 10SM CLR 19/10 A3003 RMK AO2 T01920102
KGDJ 240135Z AUTO 00000KT 10SM CLR 21/10 A3003 RMK AO2 T02050101
KGDJ 240115Z AUTO 00000KT 10SM CLR 21/11 A3002 RMK AO2 T02100109
KGDJ 240055Z AUTO 33003KT 10SM CLR 22/10 A3002 RMK AO2 T02210100
KGDJ 240035Z AUTO 34003KT 10SM CLR 23/10 A3002 RMK AO2 T02300098
KGDJ 240015Z AUTO 33007KT 10SM CLR 24/09 A3001 RMK AO2 T02380093
KGDJ 232355Z AUTO 34007KT 10SM CLR 24/09 A3001 RMK AO2 T02430089 10253 20220
KGDJ 232335Z AUTO 35006KT 10SM CLR 25/09 A3001 RMK AO2 T02450093
KGDJ 232315Z AUTO 33006KT 10SM CLR 25/09 A3001 RMK AO2 T02490092
KGDJ 232255Z AUTO 29008KT 270V350 10SM CLR 25/10 A3002 RMK AO2 T02500095
KGDJ 232235Z AUTO 31009KT 290V360 10SM CLR 25/09 A3002 RMK AO2 T02500094
KGDJ 232215Z AUTO 01005KT 10SM CLR 25/10 A3002 RMK AO2 T02510097
KGDJ 232155Z AUTO 31010KT 10SM CLR 25/10 A3002 RMK AO2 T02500096
KGDJ 232135Z AUTO 33005KT 10SM CLR 25/10 A3003 RMK AO2 T02490097
KGDJ 232110Z AUTO 36007KT 10SM CLR 25/10 A3004 RMK AO2 T02470095
KGDJ 232055Z AUTO 33007G16KT 300V360 10SM CLR 25/09 A3005 RMK AO2 T02470092
KGDJ 232035Z AUTO 32008G14KT 10SM CLR 24/09 A3005 RMK AO2 T02440093
KGDJ 232015Z AUTO 33008KT 10SM CLR 24/10 A3006 RMK AO2 T02420100
KGDJ 231955Z AUTO 34008KT 300V360 10SM CLR 24/09 A3007 RMK AO2 T02390092
KGDJ 231935Z AUTO 32010G14KT 10SM CLR 24/10 A3008 RMK AO2 T02350099
KGDJ 231915Z AUTO 31011G17KT 10SM CLR 23/10 A3009 RMK AO2 T02320098
KGDJ 231855Z AUTO 31005KT 10SM SCT046 23/10 A3010 RMK AO2 T02300099
KGDJ 231835Z AUTO 32012G16KT 10SM SCT046 23/10 A3010 RMK AO2 T02270101
KGDJ 231815Z AUTO 34009G15KT 10SM SCT046 22/10 A3011 RMK AO2 T02220098
KGDJ 231755Z AUTO 31013KT 10SM CLR 22/10 A3012 RMK AO2 T02200099 10220 20095
KGDJ 231735Z AUTO 33013G16KT 10SM SCT039 22/11 A3012 RMK AO2 T02200107
KGDJ 231715Z AUTO 29012KT 10SM SCT039 21/10 A3013 RMK AO2 T02070102
KGDJ 231655Z AUTO 32012G15KT 10SM CLR 20/11 A3014 RMK AO2 T02000105
KGDJ 231635Z AUTO 32010G14KT 280V350 10SM CLR 19/11 A3014 RMK AO2 T01910108
KGDJ 231615Z AUTO 31009G15KT 10SM CLR 18/11 A3015 RMK AO2 T01830107
KGDJ 231555Z AUTO 31012KT 10SM CLR 18/10 A3015 RMK AO2 T01790104
KGDJ 231535Z AUTO 32013G16KT 10SM CLR 18/10 A3015 RMK AO2 T01760102
KGDJ 231515Z AUTO 31009G15KT 10SM SCT022 17/10 A3016 RMK AO2 T01690101
KGDJ 231450Z AUTO 31012KT 10SM CLR 16/10 A3015 RMK AO2 T01580098
KGDJ 231435Z AUTO 33009KT 10SM CLR 15/10 A3015 RMK AO2 T01530099
KGDJ 231410Z AUTO 31009KT 10SM CLR 14/10 A3016 RMK AO2 T01400096
KGDJ 231350Z AUTO 30008KT 10SM CLR 14/10 A3016 RMK AO2 T01350096
KGDJ 231335Z AUTO 29009KT 10SM CLR 13/09 A3015 RMK AO2 T01270094
KGDJ 231315Z AUTO 28006KT 10SM CLR 12/09 A3015 RMK AO2 T01150087
KGDJ 231255Z AUTO 28006KT 10SM CLR 10/08 A3014 RMK AO2 T01010081
KGDJ 231235Z AUTO 29006KT 10SM CLR 10/07 A3013 RMK AO2 T00950073
KGDJ 231210Z AUTO 28005KT 10SM CLR 10/08 A3012 RMK AO2 T00970075
KGDJ 231155Z AUTO 28006KT 10SM CLR 10/08 A3011 RMK AO2 T00970075 10105 20083
KGDJ 231135Z AUTO 28006KT 10SM CLR 10/07 A3010 RMK AO2 T00990073
KGDJ 231115Z AUTO 28007KT 10SM CLR 10/07 A3010 RMK AO2 T01000074
KGDJ 231055Z AUTO 27007KT 10SM CLR 10/07 A3010 RMK AO2 T01020074
KGDJ 231035Z AUTO 28006KT 10SM CLR 10/07 A3009 RMK AO2 T01020074
KGDJ 231015Z AUTO 27005KT 10SM CLR 10/07 A3008 RMK AO2 T00980073
KGDJ 230955Z AUTO 32003KT 10SM CLR 09/07 A3007 RMK AO2 T00870068
KGDJ 230935Z AUTO 32004KT 10SM CLR 08/06 A3007 RMK AO2 T00830062
KGDJ 230915Z AUTO 30003KT 10SM CLR 09/07 A3007 RMK AO2 T00910066
KGDJ 230855Z AUTO 00000KT 10SM CLR 09/06 A3007 RMK AO2 T00860063
KGDJ 230835Z AUTO 00000KT 10SM CLR 09/07 A3006 RMK AO2 T00910067
KGDJ 230815Z AUTO 00000KT 10SM CLR 10/07 A3006 RMK AO2 T00950066
KGDJ 230755Z AUTO 00000KT 10SM CLR 09/07 A3006 RMK AO2 T00860068
KGDJ 230735Z AUTO 00000KT 10SM CLR 08/07 A3007 RMK AO2 T00840066
KGDJ 230715Z AUTO 00000KT 10SM CLR 09/07 A3007 RMK AO2 T00900072
KGDJ 230655Z AUTO 00000KT 10SM CLR 10/07 A3007 RMK AO2 T00960073
KGDJ 230635Z AUTO 00000KT 10SM CLR 09/07 A3008 RMK AO2 T00930070
KGDJ 230615Z AUTO 00000KT 10SM CLR 10/07 A3008 RMK AO2 T00970072
KGDJ 230555Z AUTO 24003KT 10SM CLR 10/08 A3008 RMK AO2 T01010075 10198 20101 402050101
KGDJ 230535Z AUTO 24004KT 10SM CLR 11/07 A3008 RMK AO2 T01050072
KGDJ 230515Z AUTO 00000KT 10SM CLR 11/08 A3008 RMK AO2 T01090075
KGDJ 230455Z AUTO 23005KT 10SM CLR 12/08 A3008 RMK AO2 T01170076
KGDJ 230435Z AUTO 24005KT 10SM CLR 11/08 A3008 RMK AO2 T01130076
KGDJ 230415Z AUTO 24005KT 10SM CLR 12/08 A3009 RMK AO2 T01160075
KGDJ 230350Z AUTO 25005KT 10SM CLR 13/08 A3009 RMK AO2 T01250077
KGDJ 230335Z AUTO 25004KT 10SM CLR 13/08 A3009 RMK AO2 T01300077
KGDJ 230315Z AUTO 26003KT 10SM CLR 13/08 A3009 RMK AO2 T01300077
KGDJ 230255Z AUTO 25003KT 10SM CLR 13/08 A3008 RMK AO2 T01270080
KGDJ 230235Z AUTO 28003KT 10SM CLR 13/08 A3008 RMK AO2 T01330077
KGDJ 230215Z AUTO 27003KT 10SM CLR 13/08 A3007 RMK AO2 T01340077
KGDJ 230155Z AUTO 00000KT 10SM CLR 15/07 A3006 RMK AO2 T01530072
KGDJ 230135Z AUTO 31003KT 10SM CLR 16/07 A3006 RMK AO2 T01590071
KGDJ 230115Z AUTO 31003KT 10SM CLR 17/07 A3005 RMK AO2 T01690073
KGDJ 230055Z AUTO 33004KT 10SM CLR 18/07 A3005 RMK AO2 T01780071
KGDJ 230035Z AUTO 32006KT 10SM CLR 19/07 A3005 RMK AO2 T01890069
KGDJ 230015Z AUTO 32008KT 10SM CLR 20/06 A3005 RMK AO2 T01950061
KGDJ 222355Z AUTO 32010G14KT 10SM CLR 20/07 A3005 RMK AO2 T01990066 10205 20157
KGDJ 222335Z AUTO 32009G14KT 10SM SCT050 20/07 A3005 RMK AO2 T02000066
KGDJ 222315Z AUTO 32012G15KT 10SM SCT050 20/07 A3006 RMK AO2 T02020065
KGDJ 222255Z AUTO 34009G17KT 10SM SCT050 20/07 A3005 RMK AO2 T01980065
KGDJ 222235Z AUTO 31013G18KT 10SM SCT050 20/06 A3006 RMK AO2 T02030062
KGDJ 222215Z AUTO 32010G23KT 10SM SCT050 20/06 A3006 RMK AO2 T02020064
KGDJ 222155Z AUTO 31011G21KT 10SM SCT050 20/06 A3006 RMK AO2 T02020064
KGDJ 222135Z AUTO 29011G18KT 10SM SCT050 21/07 A3007 RMK AO2 T02050068
KGDJ 222115Z AUTO 30011G15KT 10SM SCT050 20/07 A3007 RMK AO2 T02010066
KGDJ 222055Z AUTO 30012G19KT 10SM CLR 20/07 A3008 RMK AO2 T01950068
KGDJ 222035Z AUTO 31011G17KT 10SM CLR 19/07 A3008 RMK AO2 T01930069
KGDJ 222015Z AUTO 32013G17KT 10SM CLR 19/07 A3009 RMK AO2 T01900073
KGDJ 221955Z AUTO 31016G23KT 10SM SCT043 19/07 A3010 RMK AO2 T01850068
KGDJ 221935Z AUTO 32013G18KT 10SM BKN041 19/07 A3011 RMK AO2 T01860067
KGDJ 221915Z AUTO 32012G19KT 10SM BKN041 18/07 A3012 RMK AO2 T01780069
KGDJ 221855Z AUTO 31016G21KT 10SM BKN039 18/07 A3012 RMK AO2 T01790068
KGDJ 221835Z AUTO 32014G17KT 10SM OVC039 17/07 A3013 RMK AO2 T01700068
KGDJ 221815Z AUTO 30013KT 10SM OVC037 16/07 A3014 RMK AO2 T01620070
KGDJ 221755Z AUTO 32014G19KT 10SM OVC037 16/07 A3015 RMK AO2 T01570068 10162 20114
KGDJ 221735Z AUTO 31013G20KT 10SM OVC035 16/07 A3015 RMK AO2 T01550066
KGDJ 221715Z AUTO 30010G15KT 10SM OVC035 16/07 A3016 RMK AO2 T01570068
KGDJ 221655Z AUTO 31013G20KT 10SM BKN035 15/07 A3017 RMK AO2 T01520065
KGDJ 221635Z AUTO 32012G17KT 10SM OVC037 15/07 A3016 RMK AO2 T01520070